sensor_id;sensor_type;location;lat;lon;timestamp;pressure;altitude;pressure_sealevel;temperature;humidity
47330;BME280;33060;50.178;7.570;2024-03-23T00:54:24;96210.53;;;7.09;100.00
47330;BME280;33060;50.178;7.570;2024-03-23T00:56:50;96203.38;;;7.24;100.00
47330;BME280;33060;50.178;7.570;2024-03-23T00:59:16;96205.13;;;7.36;100.00
47330;BME280;33060;50.178;7.570;2024-03-23T01:01:41;96201.53;;;7.37;100.00
47330;BME280;33060;50.178;7.570;2024-03-23T01:04:07;96204.28;;;7.35;100.00
47330;BME280;33060;50.178;7.570;2024-03-23T01:06:33;96197.88;;;7.40;100.00
47330;BME280;33060;50.178;7.570;2024-03-23T01:08:59;96193.34;;;7.42;100.00
47330;BME280;33060;50.178;7.570;2024-03-23T01:11:24;96194.59;;;7.49;100.00
47330;BME280;33060;50.178;7.570;2024-03-23T01:13:50;96194.53;;;7.61;100.00
47330;BME280;33060;50.178;7.570;2024-03-23T01:16:15;96195.28;;;7.63;100.00
47330;BME280;33060;50.178;7.570;2024-03-23T01:18:41;96187.25;;;7.78;100.00
47330;BME280;33060;50.178;7.570;2024-03-23T01:21:07;96176.66;;;7.90;100.00
47330;BME280;33060;50.178;7.570;2024-03-23T01:23:32;96176.63;;;8.03;100.00
47330;BME280;33060;50.178;7.570;2024-03-23T01:25:58;96168.22;;;7.98;100.00
47330;BME280;33060;50.178;7.570;2024-03-23T01:28:24;96170.69;;;7.88;100.00
47330;BME280;33060;50.178;7.570;2024-03-23T01:30:50;96165.84;;;7.95;100.00
47330;BME280;33060;50.178;7.570;2024-03-23T01:33:15;96163.59;;;8.02;100.00
47330;BME280;33060;50.178;7.570;2024-03-23T01:35:41;96165.44;;;7.88;100.00
47330;BME280;33060;50.178;7.570;2024-03-23T01:38:07;96162.03;;;7.99;100.00
47330;BME280;33060;50.178;7.570;2024-03-23T01:40:33;96147.34;;;7.97;100.00
47330;BME280;33060;50.178;7.570;2024-03-23T01:43:03;96156.84;;;8.10;100.00
47330;BME280;33060;50.178;7.570;2024-03-23T01:45:30;96156.84;;;8.10;100.00
47330;BME280;33060;50.178;7.570;2024-03-23T01:47:56;96141.50;;;7.93;100.00
47330;BME280;33060;50.178;7.570;2024-03-23T01:50:22;96138.91;;;8.04;100.00
47330;BME280;33060;50.178;7.570;2024-03-23T01:52:49;96138.50;;;8.33;100.00
47330;BME280;33060;50.178;7.570;2024-03-23T01:55:15;96139.69;;;8.29;100.00
47330;BME280;33060;50.178;7.570;2024-03-23T01:57:41;96132.53;;;7.96;100.00
47330;BME280;33060;50.178;7.570;2024-03-23T02:00:07;96115.66;;;8.11;100.00
47330;BME280;33060;50.178;7.570;2024-03-23T02:02:45;96117.44;;;8.10;100.00
47330;BME280;33060;50.178;7.570;2024-03-23T02:05:14;96114.50;;;8.26;100.00
47330;BME280;33060;50.178;7.570;2024-03-23T02:07:41;96113.66;;;8.26;100.00
47330;BME280;33060;50.178;7.570;2024-03-23T02:10:07;96132.31;;;7.99;100.00
47330;BME280;33060;50.178;7.570;2024-03-23T02:12:34;96126.56;;;7.58;100.00
47330;BME280;33060;50.178;7.570;2024-03-23T02:15:00;96136.25;;;7.69;100.00
47330;BME280;33060;50.178;7.570;2024-03-23T02:17:26;96138.09;;;7.80;100.00
47330;BME280;33060;50.178;7.570;2024-03-23T02:19:51;96122.72;;;7.86;100.00
47330;BME280;33060;50.178;7.570;2024-03-23T02:22:17;96124.47;;;8.10;100.00
47330;BME280;33060;50.178;7.570;2024-03-23T02:24:43;96128.84;;;7.98;100.00
47330;BME280;33060;50.178;7.570;2024-03-23T02:27:09;96131.03;;;8.04;100.00
47330;BME280;33060;50.178;7.570;2024-03-23T02:29:34;96134.00;;;8.00;100.00
47330;BME280;33060;50.178;7.570;2024-03-23T02:32:00;96133.34;;;7.85;100.00
47330;BME280;33060;50.178;7.570;2024-03-23T02:34:26;96135.69;;;7.77;100.00
47330;BME280;33060;50.178;7.570;2024-03-23T02:36:52;96145.59;;;7.49;100.00
47330;BME280;33060;50.178;7.570;2024-03-23T02:39:18;96151.09;;;6.97;100.00
47330;BME280;33060;50.178;7.570;2024-03-23T02:41:44;96154.72;;;7.07;100.00
47330;BME280;33060;50.178;7.570;2024-03-23T02:44:09;96148.19;;;7.25;100.00
47330;BME280;33060;50.178;7.570;2024-03-23T02:46:38;96132.75;;;7.21;100.00
47330;BME280;33060;50.178;7.570;2024-03-23T02:49:03;96140.25;;;7.01;100.00
47330;BME280;33060;50.178;7.570;2024-03-23T02:51:31;96143.88;;;6.75;100.00
47330;BME280;33060;50.178;7.570;2024-03-23T02:53:57;96147.97;;;6.54;100.00
47330;BME280;33060;50.178;7.570;2024-03-23T02:56:22;96129.19;;;6.60;100.00
47330;BME280;33060;50.178;7.570;2024-03-23T02:58:48;96121.88;;;6.65;100.00
47330;BME280;33060;50.178;7.570;2024-03-23T03:01:14;96128.16;;;6.49;100.00
47330;BME280;33060;50.178;7.570;2024-03-23T03:03:40;96136.66;;;6.40;100.00
47330;BME280;33060;50.178;7.570;2024-03-23T03:06:06;96141.16;;;6.38;100.00
47330;BME280;33060;50.178;7.570;2024-03-23T03:08:31;96146.50;;;6.49;100.00
47330;BME280;33060;50.178;7.570;2024-03-23T03:10:57;96162.09;;;6.13;100.00
47330;BME280;33060;50.178;7.570;2024-03-23T03:13:23;96172.06;;;6.20;100.00
47330;BME280;33060;50.178;7.570;2024-03-23T03:15:48;96174.69;;;6.46;100.00
47330;BME280;33060;50.178;7.570;2024-03-23T03:18:14;96170.06;;;6.49;100.00
47330;BME280;33060;50.178;7.570;2024-03-23T03:20:40;96172.88;;;6.08;100.00
47330;BME280;33060;50.178;7.570;2024-03-23T03:23:06;96168.53;;;6.34;100.00
47330;BME280;33060;50.178;7.570;2024-03-23T03:25:33;96165.47;;;6.28;100.00
47330;BME280;33060;50.178;7.570;2024-03-23T03:27:58;96166.69;;;6.22;100.00
47330;BME280;33060;50.178;7.570;2024-03-23T03:30:24;96177.72;;;6.27;100.00
47330;BME280;33060;50.178;7.570;2024-03-23T03:32:53;96171.72;;;6.12;100.00
47330;BME280;33060;50.178;7.570;2024-03-23T03:35:18;96167.56;;;6.35;100.00
47330;BME280;33060;50.178;7.570;2024-03-23T03:37:44;96174.72;;;6.06;100.00
47330;BME280;33060;50.178;7.570;2024-03-23T03:40:11;96181.16;;;5.88;100.00
47330;BME280;33060;50.178;7.570;2024-03-23T03:42:36;96179.38;;;5.88;100.00
47330;BME280;33060;50.178;7.570;2024-03-23T03:45:03;96178.00;;;5.83;100.00
47330;BME280;33060;50.178;7.570;2024-03-23T03:47:30;96171.41;;;5.90;100.00
47330;BME280;33060;50.178;7.570;2024-03-23T03:49:56;96164.19;;;6.20;100.00
47330;BME280;33060;50.178;7.570;2024-03-23T03:52:22;96171.53;;;5.88;100.00
47330;BME280;33060;50.178;7.570;2024-03-23T03:54:47;96168.81;;;6.17;100.00
47330;BME280;33060;50.178;7.570;2024-03-23T03:57:13;96169.81;;;6.02;100.00
47330;BME280;33060;50.178;7.570;2024-03-23T03:59:39;96173.66;;;5.96;100.00
47330;BME280;33060;50.178;7.570;2024-03-23T04:02:04;96185.75;;;6.11;100.00
47330;BME280;33060;50.178;7.570;2024-03-23T04:04:30;96172.22;;;6.05;100.00
47330;BME280;33060;50.178;7.570;2024-03-23T04:07:00;96162.28;;;6.10;100.00
47330;BME280;33060;50.178;7.570;2024-03-23T04:09:26;96161.97;;;6.02;100.00
47330;BME280;33060;50.178;7.570;2024-03-23T04:11:51;96175.50;;;6.08;100.00
47330;BME280;33060;50.178;7.570;2024-03-23T04:14:17;96179.44;;;6.01;100.00
47330;BME280;33060;50.178;7.570;2024-03-23T04:16:43;96185.19;;;5.93;100.00
47330;BME280;33060;50.178;7.570;2024-03-23T04:19:08;96181.84;;;6.04;100.00
47330;BME280;33060;50.178;7.570;2024-03-23T04:21:35;96185.66;;;5.86;100.00
47330;BME280;33060;50.178;7.570;2024-03-23T04:24:01;96193.78;;;5.81;100.00
47330;BME280;33060;50.178;7.570;2024-03-23T04:26:26;96199.19;;;5.65;100.00
47330;BME280;33060;50.178;7.570;2024-03-23T04:28:53;96223.22;;;5.58;100.00
47330;BME280;33060;50.178;7.570;2024-03-23T04:31:19;96227.78;;;5.54;100.00
47330;BME280;33060;50.178;7.570;2024-03-23T04:33:45;96233.34;;;5.35;100.00
47330;BME280;33060;50.178;7.570;2024-03-23T04:36:10;96239.16;;;5.12;100.00
47330;BME280;33060;50.178;7.570;2024-03-23T04:38:36;96241.31;;;5.05;100.00
47330;BME280;33060;50.178;7.570;2024-03-23T04:41:02;96251.00;;;5.18;100.00
47330;BME280;33060;50.178;7.570;2024-03-23T04:43:28;96254.09;;;5.10;100.00
47330;BME280;33060;50.178;7.570;2024-03-23T04:45:54;96256.91;;;5.07;100.00
47330;BME280;33060;50.178;7.570;2024-03-23T04:48:23;96256.72;;;4.96;100.00
47330;BME280;33060;50.178;7.570;2024-03-23T04:50:49;96247.75;;;4.71;100.00
47330;BME280;33060;50.178;7.570;2024-03-23T04:53:15;96255.69;;;4.70;100.00
47330;BME280;33060;50.178;7.570;2024-03-23T04:55:42;96265.34;;;4.53;100.00
47330;BME280;33060;50.178;7.570;2024-03-23T04:58:08;96272.72;;;4.61;100.00
47330;BME280;33060;50.178;7.570;2024-03-23T05:00:34;96277.22;;;4.29;100.00
47330;BME280;33060;50.178;7.570;2024-03-23T05:03:00;96275.09;;;4.50;100.00
47330;BME280;33060;50.178;7.570;2024-03-23T05:05:25;96285.09;;;4.58;100.00
47330;BME280;33060;50.178;7.570;2024-03-23T05:07:51;96293.91;;;4.41;100.00
47330;BME280;33060;50.178;7.570;2024-03-23T05:10:17;96275.50;;;4.58;100.00
47330;BME280;33060;50.178;7.570;2024-03-23T05:12:42;96285.25;;;4.70;100.00
47330;BME280;33060;50.178;7.570;2024-03-23T05:15:10;96287.94;;;4.39;100.00
47330;BME280;33060;50.178;7.570;2024-03-23T05:17:35;96284.16;;;4.44;100.00
47330;BME280;33060;50.178;7.570;2024-03-23T05:20:03;96291.91;;;4.60;100.00
47330;BME280;33060;50.178;7.570;2024-03-23T05:22:29;96292.09;;;4.57;100.00
47330;BME280;33060;50.178;7.570;2024-03-23T05:24:56;96293.28;;;4.51;100.00
47330;BME280;33060;50.178;7.570;2024-03-23T05:27:22;96299.06;;;4.72;100.00
47330;BME280;33060;50.178;7.570;2024-03-23T05:29:48;96303.97;;;4.63;100.00
47330;BME280;33060;50.178;7.570;2024-03-23T05:32:14;96323.00;;;4.35;100.00
47330;BME280;33060;50.178;7.570;2024-03-23T05:34:40;96317.69;;;4.36;100.00
47330;BME280;33060;50.178;7.570;2024-03-23T05:37:05;96313.47;;;4.34;100.00
47330;BME280;33060;50.178;7.570;2024-03-23T05:39:31;96296.53;;;4.71;100.00
47330;BME280;33060;50.178;7.570;2024-03-23T05:41:57;96320.88;;;4.71;100.00
47330;BME280;33060;50.178;7.570;2024-03-23T05:44:22;96325.53;;;4.66;100.00
47330;BME280;33060;50.178;7.570;2024-03-23T05:46:48;96333.28;;;4.38;100.00
47330;BME280;33060;50.178;7.570;2024-03-23T05:49:15;96334.44;;;4.32;100.00
47330;BME280;33060;50.178;7.570;2024-03-23T05:51:41;96335.16;;;4.50;100.00
47330;BME280;33060;50.178;7.570;2024-03-23T05:54:07;96338.38;;;4.55;100.00
47330;BME280;33060;50.178;7.570;2024-03-23T05:56:32;96343.38;;;4.44;100.00
47330;BME280;33060;50.178;7.570;2024-03-23T05:58:58;96346.84;;;4.29;100.00
47330;BME280;33060;50.178;7.570;2024-03-23T06:01:24;96350.53;;;4.24;100.00
47330;BME280;33060;50.178;7.570;2024-03-23T06:03:50;96348.63;;;4.28;100.00
47330;BME280;33060;50.178;7.570;2024-03-23T06:06:16;96346.88;;;4.43;100.00
47330;BME280;33060;50.178;7.570;2024-03-23T06:08:42;96356.50;;;4.42;100.00
47330;BME280;33060;50.178;7.570;2024-03-23T06:11:07;96338.41;;;4.69;100.00
47330;BME280;33060;50.178;7.570;2024-03-23T06:13:33;96349.72;;;4.70;100.00
47330;BME280;33060;50.178;7.570;2024-03-23T06:16:01;96350.53;;;4.70;100.00
47330;BME280;33060;50.178;7.570;2024-03-23T06:18:27;96352.44;;;4.82;100.00
47330;BME280;33060;50.178;7.570;2024-03-23T06:20:53;96361.66;;;4.74;100.00
47330;BME280;33060;50.178;7.570;2024-03-23T06:23:19;96357.06;;;4.77;100.00
47330;BME280;33060;50.178;7.570;2024-03-23T06:25:46;96351.53;;;4.68;100.00
47330;BME280;33060;50.178;7.570;2024-03-23T06:28:12;96347.78;;;4.88;100.00
47330;BME280;33060;50.178;7.570;2024-03-23T06:30:38;96354.63;;;5.04;100.00
47330;BME280;33060;50.178;7.570;2024-03-23T06:33:04;96364.50;;;4.99;100.00
47330;BME280;33060;50.178;7.570;2024-03-23T06:35:31;96366.53;;;4.94;100.00
47330;BME280;33060;50.178;7.570;2024-03-23T06:37:57;96375.81;;;5.00;100.00
47330;BME280;33060;50.178;7.570;2024-03-23T06:40:23;96382.66;;;5.17;100.00
47330;BME280;33060;50.178;7.570;2024-03-23T06:42:49;96377.06;;;5.37;100.00
47330;BME280;33060;50.178;7.570;2024-03-23T06:45:16;96388.06;;;5.28;100.00
47330;BME280;33060;50.178;7.570;2024-03-23T06:47:42;96383.13;;;5.23;100.00
47330;BME280;33060;50.178;7.570;2024-03-23T06:50:08;96400.50;;;5.24;100.00
47330;BME280;33060;50.178;7.570;2024-03-23T06:52:35;96404.78;;;5.25;100.00
47330;BME280;33060;50.178;7.570;2024-03-23T06:55:01;96419.44;;;5.14;100.00
47330;BME280;33060;50.178;7.570;2024-03-23T06:57:30;96412.13;;;5.49;100.00
47330;BME280;33060;50.178;7.570;2024-03-23T06:59:55;96417.25;;;5.50;100.00
47330;BME280;33060;50.178;7.570;2024-03-23T07:02:21;96420.50;;;5.39;100.00
47330;BME280;33060;50.178;7.570;2024-03-23T07:04:50;96416.03;;;5.56;100.00
47330;BME280;33060;50.178;7.570;2024-03-23T07:07:16;96418.34;;;5.46;100.00
47330;BME280;33060;50.178;7.570;2024-03-23T07:09:41;96421.00;;;5.60;100.00
47330;BME280;33060;50.178;7.570;2024-03-23T07:12:07;96419.00;;;5.64;100.00
47330;BME280;33060;50.178;7.570;2024-03-23T07:14:33;96420.59;;;5.52;100.00
47330;BME280;33060;50.178;7.570;2024-03-23T07:16:59;96428.34;;;5.39;100.00
47330;BME280;33060;50.178;7.570;2024-03-23T07:19:25;96423.06;;;5.11;100.00
47330;BME280;33060;50.178;7.570;2024-03-23T07:21:50;96416.44;;;5.92;100.00
47330;BME280;33060;50.178;7.570;2024-03-23T07:24:16;96425.94;;;5.79;100.00
47330;BME280;33060;50.178;7.570;2024-03-23T07:26:42;96423.34;;;5.65;100.00
47330;BME280;33060;50.178;7.570;2024-03-23T07:29:07;96423.97;;;5.68;100.00
47330;BME280;33060;50.178;7.570;2024-03-23T07:31:33;96420.72;;;6.08;100.00
47330;BME280;33060;50.178;7.570;2024-03-23T07:33:59;96427.72;;;5.79;100.00
47330;BME280;33060;50.178;7.570;2024-03-23T07:36:24;96420.44;;;5.98;100.00
47330;BME280;33060;50.178;7.570;2024-03-23T07:38:51;96422.25;;;6.39;100.00
47330;BME280;33060;50.178;7.570;2024-03-23T07:41:18;96424.94;;;6.51;100.00
47330;BME280;33060;50.178;7.570;2024-03-23T07:43:45;96437.00;;;6.54;100.00
47330;BME280;33060;50.178;7.570;2024-03-23T07:46:11;96437.78;;;6.69;100.00
47330;BME280;33060;50.178;7.570;2024-03-23T07:48:40;96439.63;;;6.54;100.00
47330;BME280;33060;50.178;7.570;2024-03-23T07:51:17;96441.44;;;6.39;100.00
47330;BME280;33060;50.178;7.570;2024-03-23T07:53:44;96442.69;;;6.19;100.00
47330;BME280;33060;50.178;7.570;2024-03-23T07:56:12;96445.78;;;6.26;100.00
47330;BME280;33060;50.178;7.570;2024-03-23T07:58:38;96444.88;;;6.81;100.00
47330;BME280;33060;50.178;7.570;2024-03-23T08:01:10;96443.22;;;6.93;100.00
47330;BME280;33060;50.178;7.570;2024-03-23T08:03:37;96446.53;;;6.82;100.00
47330;BME280;33060;50.178;7.570;2024-03-23T08:06:16;96445.28;;;7.27;100.00
47330;BME280;33060;50.178;7.570;2024-03-23T08:08:44;96446.06;;;7.02;100.00
47330;BME280;33060;50.178;7.570;2024-03-23T08:11:09;96458.84;;;6.94;100.00
47330;BME280;33060;50.178;7.570;2024-03-23T08:13:38;96456.19;;;6.82;100.00
47330;BME280;33060;50.178;7.570;2024-03-23T08:16:04;96453.78;;;7.18;100.00
47330;BME280;33060;50.178;7.570;2024-03-23T08:18:30;96444.59;;;6.98;100.00
47330;BME280;33060;50.178;7.570;2024-03-23T08:21:01;96461.59;;;7.45;100.00
47330;BME280;33060;50.178;7.570;2024-03-23T08:23:28;96455.00;;;7.52;100.00
47330;BME280;33060;50.178;7.570;2024-03-23T08:26:00;96455.09;;;7.51;100.00
47330;BME280;33060;50.178;7.570;2024-03-23T08:28:27;96452.06;;;7.70;100.00
47330;BME280;33060;50.178;7.570;2024-03-23T08:30:54;96454.16;;;8.03;100.00
47330;BME280;33060;50.178;7.570;2024-03-23T08:33:20;96457.19;;;8.35;100.00
47330;BME280;33060;50.178;7.570;2024-03-23T08:35:56;96445.25;;;8.55;100.00
47330;BME280;33060;50.178;7.570;2024-03-23T08:38:23;96450.44;;;8.31;100.00
47330;BME280;33060;50.178;7.570;2024-03-23T08:41:09;96448.75;;;8.30;100.00
47330;BME280;33060;50.178;7.570;2024-03-23T08:43:39;96449.97;;;8.62;100.00
47330;BME280;33060;50.178;7.570;2024-03-23T08:46:13;96456.25;;;8.36;100.00
47330;BME280;33060;50.178;7.570;2024-03-23T08:48:44;96456.25;;;7.98;100.00
47330;BME280;33060;50.178;7.570;2024-03-23T08:51:15;96455.94;;;8.02;100.00
47330;BME280;33060;50.178;7.570;2024-03-23T08:53:42;96463.50;;;7.81;100.00
47330;BME280;33060;50.178;7.570;2024-03-23T08:56:08;96462.19;;;8.50;100.00
47330;BME280;33060;50.178;7.570;2024-03-23T08:58:35;96457.38;;;8.32;100.00
47330;BME280;33060;50.178;7.570;2024-03-23T09:01:12;96470.13;;;8.00;100.00
47330;BME280;33060;50.178;7.570;2024-03-23T09:03:41;96460.63;;;8.22;100.00
47330;BME280;33060;50.178;7.570;2024-03-23T09:06:08;96463.19;;;8.37;100.00
47330;BME280;33060;50.178;7.570;2024-03-23T09:08:34;96458.09;;;8.34;100.00
47330;BME280;33060;50.178;7.570;2024-03-23T09:11:05;96464.66;;;8.65;100.00
47330;BME280;33060;50.178;7.570;2024-03-23T09:13:33;96468.41;;;8.86;100.00
47330;BME280;33060;50.178;7.570;2024-03-23T09:15:59;96460.59;;;9.44;100.00
47330;BME280;33060;50.178;7.570;2024-03-23T09:18:25;96448.00;;;9.71;100.00
47330;BME280;33060;50.178;7.570;2024-03-23T09:20:51;96452.00;;;9.06;99.11
47330;BME280;33060;50.178;7.570;2024-03-23T09:23:19;96490.44;;;7.32;100.00
47330;BME280;33060;50.178;7.570;2024-03-23T09:25:45;96516.56;;;6.10;100.00
47330;BME280;33060;50.178;7.570;2024-03-23T09:28:11;96508.66;;;5.82;100.00
47330;BME280;33060;50.178;7.570;2024-03-23T09:30:37;96511.81;;;5.28;100.00
47330;BME280;33060;50.178;7.570;2024-03-23T09:33:08;96514.56;;;5.41;100.00
47330;BME280;33060;50.178;7.570;2024-03-23T09:35:38;96512.00;;;5.70;100.00
47330;BME280;33060;50.178;7.570;2024-03-23T09:38:04;96505.34;;;5.64;100.00
47330;BME280;33060;50.178;7.570;2024-03-23T09:40:30;96489.78;;;6.34;100.00
47330;BME280;33060;50.178;7.570;2024-03-23T09:42:57;96505.34;;;5.64;100.00
47330;BME280;33060;50.178;7.570;2024-03-23T09:45:34;96498.56;;;6.61;100.00
47330;BME280;33060;50.178;7.570;2024-03-23T09:48:01;96495.53;;;6.67;100.00
47330;BME280;33060;50.178;7.570;2024-03-23T09:50:27;96488.88;;;7.03;100.00
47330;BME280;33060;50.178;7.570;2024-03-23T09:52:53;96489.38;;;6.95;100.00
47330;BME280;33060;50.178;7.570;2024-03-23T09:55:18;96488.94;;;6.89;100.00
47330;BME280;33060;50.178;7.570;2024-03-23T09:57:44;96494.91;;;6.49;100.00
47330;BME280;33060;50.178;7.570;2024-03-23T10:00:10;96488.38;;;6.42;100.00
47330;BME280;33060;50.178;7.570;2024-03-23T10:02:37;96491.88;;;6.29;100.00
47330;BME280;33060;50.178;7.570;2024-03-23T10:05:03;96495.28;;;6.58;100.00
47330;BME280;33060;50.178;7.570;2024-03-23T10:07:29;96496.38;;;6.95;100.00
47330;BME280;33060;50.178;7.570;2024-03-23T10:09:55;96501.63;;;6.95;100.00
47330;BME280;33060;50.178;7.570;2024-03-23T10:12:23;96503.03;;;7.00;100.00
47330;BME280;33060;50.178;7.570;2024-03-23T10:14:49;96500.94;;;7.32;100.00
47330;BME280;33060;50.178;7.570;2024-03-23T10:17:20;96504.66;;;7.16;100.00
47330;BME280;33060;50.178;7.570;2024-03-23T10:19:51;96496.06;;;7.14;100.00
47330;BME280;33060;50.178;7.570;2024-03-23T10:22:18;96494.66;;;6.81;100.00
47330;BME280;33060;50.178;7.570;2024-03-23T10:24:44;96487.09;;;7.30;100.00
47330;BME280;33060;50.178;7.570;2024-03-23T10:27:15;96480.06;;;7.44;100.00
47330;BME280;33060;50.178;7.570;2024-03-23T10:29:41;96481.00;;;7.55;100.00
47330;BME280;33060;50.178;7.570;2024-03-23T10:32:11;96470.97;;;7.87;100.00
47330;BME280;33060;50.178;7.570;2024-03-23T10:34:37;96468.44;;;8.11;100.00
47330;BME280;33060;50.178;7.570;2024-03-23T10:37:04;96474.00;;;8.07;100.00
47330;BME280;33060;50.178;7.570;2024-03-23T10:39:36;96472.13;;;8.09;100.00
47330;BME280;33060;50.178;7.570;2024-03-23T10:42:06;96471.28;;;7.57;100.00
47330;BME280;33060;50.178;7.570;2024-03-23T10:44:33;96460.75;;;8.21;100.00
47330;BME280;33060;50.178;7.570;2024-03-23T10:47:01;96453.03;;;8.56;100.00
47330;BME280;33060;50.178;7.570;2024-03-23T10:49:29;96457.13;;;8.60;100.00
47330;BME280;33060;50.178;7.570;2024-03-23T10:51:57;96455.03;;;8.53;100.00
47330;BME280;33060;50.178;7.570;2024-03-23T10:54:24;96450.56;;;8.66;100.00
47330;BME280;33060;50.178;7.570;2024-03-23T10:56:56;96459.19;;;8.06;100.00
47330;BME280;33060;50.178;7.570;2024-03-23T10:59:24;96450.19;;;8.34;100.00
47330;BME280;33060;50.178;7.570;2024-03-23T11:01:55;96458.28;;;8.56;100.00
47330;BME280;33060;50.178;7.570;2024-03-23T11:04:37;96451.94;;;8.71;100.00
47330;BME280;33060;50.178;7.570;2024-03-23T11:09:52;96443.38;;;9.04;99.19
47330;BME280;33060;50.178;7.570;2024-03-23T11:14:47;96442.00;;;9.23;93.34
47330;BME280;33060;50.178;7.570;2024-03-23T11:17:20;96436.81;;;9.10;93.95
47330;BME280;33060;50.178;7.570;2024-03-23T11:19:54;96440.59;;;8.58;98.69
47330;BME280;33060;50.178;7.570;2024-03-23T11:25:23;96433.75;;;8.92;96.93
47330;BME280;33060;50.178;7.570;2024-03-23T11:27:51;96431.00;;;8.46;98.83
47330;BME280;33060;50.178;7.570;2024-03-23T11:30:20;96425.25;;;8.65;98.06
47330;BME280;33060;50.178;7.570;2024-03-23T11:32:49;96430.47;;;8.41;99.76
47330;BME280;33060;50.178;7.570;2024-03-23T11:35:31;96424.72;;;8.36;96.59
47330;BME280;33060;50.178;7.570;2024-03-23T11:40:27;96424.03;;;8.32;100.00
47330;BME280;33060;50.178;7.570;2024-03-23T11:42:59;96430.06;;;8.34;100.00
47330;BME280;33060;50.178;7.570;2024-03-23T11:45:26;96430.00;;;7.72;100.00
47330;BME280;33060;50.178;7.570;2024-03-23T11:48:02;96428.22;;;7.60;100.00
47330;BME280;33060;50.178;7.570;2024-03-23T11:50:28;96429.84;;;7.10;100.00
47330;BME280;33060;50.178;7.570;2024-03-23T11:55:50;96430.06;;;7.20;100.00
47330;BME280;33060;50.178;7.570;2024-03-23T11:58:18;96440.97;;;7.14;100.00
47330;BME280;33060;50.178;7.570;2024-03-23T12:00:58;96461.94;;;6.60;100.00
47330;BME280;33060;50.178;7.570;2024-03-23T12:03:25;96485.56;;;5.88;100.00
47330;BME280;33060;50.178;7.570;2024-03-23T12:05:52;96484.81;;;5.72;100.00
47330;BME280;33060;50.178;7.570;2024-03-23T12:08:39;96482.13;;;5.88;100.00
47330;BME280;33060;50.178;7.570;2024-03-23T12:11:12;96482.47;;;5.82;100.00
47330;BME280;33060;50.178;7.570;2024-03-23T12:13:39;96495.44;;;5.55;100.00
47330;BME280;33060;50.178;7.570;2024-03-23T12:18:36;96472.34;;;6.20;100.00
47330;BME280;33060;50.178;7.570;2024-03-23T12:21:03;96491.88;;;6.14;100.00
47330;BME280;33060;50.178;7.570;2024-03-23T12:23:28;96492.81;;;6.13;100.00
47330;BME280;33060;50.178;7.570;2024-03-23T12:25:54;96500.75;;;6.26;100.00
47330;BME280;33060;50.178;7.570;2024-03-23T12:28:20;96492.03;;;5.83;100.00
47330;BME280;33060;50.178;7.570;2024-03-23T12:30:45;96498.50;;;4.71;100.00
47330;BME280;33060;50.178;7.570;2024-03-23T12:33:11;96489.13;;;4.67;100.00
47330;BME280;33060;50.178;7.570;2024-03-23T12:35:37;96490.19;;;5.55;100.00
47330;BME280;33060;50.178;7.570;2024-03-23T12:38:03;96494.50;;;5.56;100.00
47330;BME280;33060;50.178;7.570;2024-03-23T12:40:29;96485.94;;;5.68;100.00
47330;BME280;33060;50.178;7.570;2024-03-23T12:42:55;96481.66;;;6.38;100.00
47330;BME280;33060;50.178;7.570;2024-03-23T12:45:22;96484.75;;;6.16;100.00
47330;BME280;33060;50.178;7.570;2024-03-23T12:47:47;96477.44;;;5.79;100.00
47330;BME280;33060;50.178;7.570;2024-03-23T12:50:13;96486.31;;;5.76;100.00
47330;BME280;33060;50.178;7.570;2024-03-23T12:52:39;96492.09;;;5.67;100.00
47330;BME280;33060;50.178;7.570;2024-03-23T12:55:05;96497.91;;;5.12;100.00
47330;BME280;33060;50.178;7.570;2024-03-23T12:57:31;96489.34;;;5.10;100.00
47330;BME280;33060;50.178;7.570;2024-03-23T12:59:57;96467.53;;;5.70;100.00
47330;BME280;33060;50.178;7.570;2024-03-23T13:02:23;96456.41;;;6.23;100.00
47330;BME280;33060;50.178;7.570;2024-03-23T13:04:50;96457.38;;;6.90;100.00
47330;BME280;33060;50.178;7.570;2024-03-23T13:07:17;96455.31;;;7.60;100.00
47330;BME280;33060;50.178;7.570;2024-03-23T13:09:43;96454.88;;;7.41;100.00
47330;BME280;33060;50.178;7.570;2024-03-23T13:12:09;96459.47;;;7.37;100.00
47330;BME280;33060;50.178;7.570;2024-03-23T13:14:36;96455.72;;;7.80;100.00
47330;BME280;33060;50.178;7.570;2024-03-23T13:17:02;96440.63;;;7.71;100.00
47330;BME280;33060;50.178;7.570;2024-03-23T13:19:28;96438.38;;;7.26;100.00
47330;BME280;33060;50.178;7.570;2024-03-23T13:22:00;96444.25;;;6.90;100.00
47330;BME280;33060;50.178;7.570;2024-03-23T13:24:27;96442.31;;;6.11;100.00
47330;BME280;33060;50.178;7.570;2024-03-23T13:26:54;96431.31;;;6.47;100.00
47330;BME280;33060;50.178;7.570;2024-03-23T13:29:20;96442.53;;;6.49;100.00
47330;BME280;33060;50.178;7.570;2024-03-23T13:31:48;96436.78;;;6.57;100.00
47330;BME280;33060;50.178;7.570;2024-03-23T13:34:14;96445.03;;;6.10;100.00
47330;BME280;33060;50.178;7.570;2024-03-23T13:36:44;96438.06;;;6.37;100.00
47330;BME280;33060;50.178;7.570;2024-03-23T13:39:11;96418.34;;;6.59;100.00
47330;BME280;33060;50.178;7.570;2024-03-23T13:41:41;96422.75;;;6.85;100.00
47330;BME280;33060;50.178;7.570;2024-03-23T13:44:08;96417.50;;;6.85;100.00
47330;BME280;33060;50.178;7.570;2024-03-23T13:46:34;96401.84;;;6.71;100.00
47330;BME280;33060;50.178;7.570;2024-03-23T13:49:00;96399.88;;;7.14;100.00
47330;BME280;33060;50.178;7.570;2024-03-23T13:51:27;96402.38;;;7.28;100.00
47330;BME280;33060;50.178;7.570;2024-03-23T13:53:53;96401.53;;;7.15;100.00
47330;BME280;33060;50.178;7.570;2024-03-23T13:56:20;96389.91;;;7.70;100.00
47330;BME280;33060;50.178;7.570;2024-03-23T13:58:46;96385.09;;;8.13;100.00
47330;BME280;33060;50.178;7.570;2024-03-23T14:01:16;96378.78;;;8.76;100.00
47330;BME280;33060;50.178;7.570;2024-03-23T14:03:43;96379.88;;;8.74;100.00
47330;BME280;33060;50.178;7.570;2024-03-23T14:06:13;96375.88;;;8.92;100.00
47330;BME280;33060;50.178;7.570;2024-03-23T14:08:45;96369.44;;;8.61;100.00